Time;durP1;ratioP1;P1;durP2;ratioP2;P2;SDS_P1;SDS_P2;PMS_P1;PMS_P2;Temp;Humidity;BMP_temperature;BMP_pressure;BME280_temperature;BME280_humidity;BME280_pressure;Samples;Min_cycle;Max_cycle;Signal;HPM_P1;HPM_P2
2022/11/13 00:01:15;;;;;;;6.73;5.90;;;7.10;99.90;;;;;;5053306;28;20254;-54
2022/11/13 00:04:02;;;;;;;7.10;5.97;;;7.10;99.90;;;;;;5053321;28;20845;-53
2022/11/13 00:06:48;;;;;;;7.50;6.33;;;7.10;99.90;;;;;;5053188;28;20230;-51
2022/11/13 00:09:41;;;;;;;7.30;5.80;;;7.00;99.90;;;;;;5053441;28;20331;-51
2022/11/13 00:12:29;;;;;;;6.70;6.00;;;7.00;99.90;;;;;;5054290;28;20226;-51
2022/11/13 00:15:16;;;;;;;5.53;5.03;;;7.00;99.90;;;;;;5052929;28;20366;-50
2022/11/13 00:18:04;;;;;;;6.20;5.60;;;7.00;99.90;;;;;;5053079;28;20235;-52
2022/11/13 00:20:50;;;;;;;6.43;5.57;;;6.90;99.90;;;;;;5052998;28;20243;-53
2022/11/13 00:23:37;;;;;;;6.37;5.77;;;6.90;99.90;;;;;;5053199;28;20226;-52
2022/11/13 00:26:26;;;;;;;7.20;6.33;;;6.90;99.90;;;;;;5053141;28;20729;-53
2022/11/13 00:29:13;;;;;;;8.43;5.80;;;6.90;99.90;;;;;;5053092;28;20282;-53
2022/11/13 00:31:59;;;;;;;8.00;6.13;;;6.90;99.90;;;;;;5052699;28;20313;-52
2022/11/13 00:34:47;;;;;;;7.60;6.80;;;6.90;99.90;;;;;;5052986;28;20838;-51
2022/11/13 00:37:34;;;;;;;8.07;6.77;;;6.90;99.90;;;;;;5051960;28;20246;-55
2022/11/13 00:40:20;;;;;;;8.10;7.27;;;6.90;99.90;;;;;;5053145;28;20281;-52
2022/11/13 00:43:07;;;;;;;9.40;7.30;;;6.90;99.90;;;;;;5052802;28;20784;-52
2022/11/13 00:45:54;;;;;;;10.83;8.07;;;6.90;99.90;;;;;;5052605;28;20342;-51
2022/11/13 00:48:40;;;;;;;8.63;7.47;;;7.00;99.90;;;;;;5052840;28;20282;-52
2022/11/13 00:51:28;;;;;;;9.40;8.30;;;6.90;99.90;;;;;;5046923;28;20769;-53
2022/11/13 00:54:15;;;;;;;8.97;8.00;;;7.00;99.90;;;;;;5052783;28;20269;-53
2022/11/13 00:57:01;;;;;;;12.30;8.70;;;6.90;99.90;;;;;;5052586;28;20709;-53
2022/11/13 00:59:48;;;;;;;9.93;8.40;;;7.00;99.90;;;;;;5043526;28;20285;-54
2022/11/13 01:02:34;;;;;;;10.30;8.40;;;6.90;99.90;;;;;;5052186;28;20243;-54
2022/11/13 01:05:21;;;;;;;11.20;8.70;;;6.90;99.90;;;;;;5052950;28;20648;-53
2022/11/13 01:08:10;;;;;;;12.97;8.93;;;7.00;99.90;;;;;;5052808;28;20222;-52
2022/11/13 01:10:56;;;;;;;12.33;9.30;;;7.00;99.90;;;;;;5054059;28;20234;-53
2022/11/13 01:13:44;;;;;;;12.13;9.87;;;7.00;99.90;;;;;;5055600;28;20584;-51
2022/11/13 01:16:31;;;;;;;11.23;9.57;;;7.00;99.90;;;;;;5047285;28;20231;-52
2022/11/13 01:19:18;;;;;;;13.40;10.00;;;7.00;99.90;;;;;;5059451;28;20568;-53
2022/11/13 01:22:04;;;;;;;9.87;8.30;;;6.90;99.90;;;;;;5052581;28;20686;-52
2022/11/13 01:24:52;;;;;;;12.67;9.37;;;7.00;99.90;;;;;;5052562;28;20223;-54
2022/11/13 01:27:39;;;;;;;13.20;9.10;;;7.10;99.90;;;;;;5045108;28;20305;-53
2022/11/13 01:30:26;;;;;;;11.53;10.10;;;7.00;99.90;;;;;;5051811;28;20334;-52
2022/11/13 01:33:12;;;;;;;11.47;10.00;;;7.00;99.90;;;;;;5052449;28;20228;-53
2022/11/13 01:36:04;;;;;;;12.20;9.33;;;7.00;99.90;;;;;;5052144;28;20253;-50
2022/11/13 01:38:51;;;;;;;11.63;9.10;;;7.00;99.90;;;;;;5052378;28;20223;-51
2022/11/13 01:41:39;;;;;;;10.97;8.47;;;6.90;99.90;;;;;;5053708;28;20599;-52
2022/11/13 01:44:26;;;;;;;10.60;9.27;;;6.90;99.90;;;;;;5049607;28;20232;-54
2022/11/13 01:47:13;;;;;;;10.40;9.33;;;6.90;99.90;;;;;;5038051;28;20271;-52
2022/11/13 01:50:02;;;;;;;11.67;9.73;;;6.90;99.90;;;;;;5055869;28;20345;-52
2022/11/13 01:52:49;;;;;;;12.37;9.60;;;6.90;99.90;;;;;;5056158;28;20713;-51
2022/11/13 01:55:35;;;;;;;13.53;9.80;;;6.90;99.90;;;;;;5059511;28;20230;-54
2022/11/13 01:58:24;;;;;;;13.20;9.63;;;6.90;99.90;;;;;;5075993;28;20310;-53
2022/11/13 02:01:11;;;;;;;13.23;9.93;;;6.90;99.90;;;;;;5075592;28;20238;-52
2022/11/13 02:03:58;;;;;;;11.57;9.50;;;6.90;99.90;;;;;;5075730;28;20614;-52
2022/11/13 02:06:47;;;;;;;10.87;9.43;;;7.00;99.90;;;;;;5075395;28;20238;-51
2022/11/13 02:09:37;;;;;;;11.17;9.47;;;6.90;99.90;;;;;;5075695;28;20747;-53
2022/11/13 02:12:30;;;;;;;12.77;9.87;;;6.90;99.90;;;;;;5061730;28;20296;-52
2022/11/13 02:15:22;;;;;;;11.63;10.47;;;6.90;99.90;;;;;;5055620;28;20284;-53
2022/11/13 02:18:10;;;;;;;12.00;10.10;;;6.90;99.90;;;;;;5062313;28;20591;-50
2022/11/13 02:21:05;;;;;;;12.63;9.70;;;6.90;99.90;;;;;;5055315;28;20362;-53
2022/11/13 02:23:59;;;;;;;12.87;10.90;;;7.00;99.90;;;;;;5055219;28;20238;-52
2022/11/13 02:26:49;;;;;;;12.03;10.00;;;7.10;99.90;;;;;;5068196;28;20285;-52
2022/11/13 02:29:36;;;;;;;13.53;10.17;;;7.00;99.90;;;;;;5075414;28;20729;-53
2022/11/13 02:32:22;;;;;;;13.03;10.73;;;7.00;99.90;;;;;;5075145;28;20245;-51
2022/11/13 02:35:09;;;;;;;12.73;10.77;;;7.00;99.90;;;;;;5075030;28;20242;-52
2022/11/13 02:37:58;;;;;;;12.60;10.70;;;7.00;99.90;;;;;;5075180;28;20222;-50
2022/11/13 02:40:44;;;;;;;14.23;10.77;;;7.00;99.90;;;;;;5074953;28;20271;-51
2022/11/13 02:43:32;;;;;;;12.43;11.13;;;7.00;99.90;;;;;;5054865;28;20301;-53
2022/11/13 02:46:19;;;;;;;11.97;10.70;;;7.00;99.90;;;;;;5048155;28;20347;-53
2022/11/13 02:49:06;;;;;;;10.43;9.20;;;6.90;99.90;;;;;;5061879;28;20614;-51
2022/11/13 02:51:53;;;;;;;10.00;8.67;;;6.80;99.90;;;;;;5054970;28;20831;-53
2022/11/13 02:54:39;;;;;;;10.43;8.50;;;6.80;99.90;;;;;;5054655;28;20575;-51
2022/11/13 02:57:26;;;;;;;9.83;8.63;;;6.70;99.90;;;;;;5034848;28;20358;-54
2022/11/13 03:00:15;;;;;;;9.13;8.17;;;6.70;99.90;;;;;;5033762;28;20715;-54
2022/11/13 03:03:01;;;;;;;10.13;8.13;;;6.70;99.90;;;;;;5042293;28;20242;-52
2022/11/13 03:05:49;;;;;;;10.37;8.20;;;6.70;99.90;;;;;;5054363;28;20227;-52
2022/11/13 03:08:36;;;;;;;13.87;10.30;;;6.80;99.90;;;;;;5054611;28;20230;-52
2022/11/13 03:11:36;;;;;;;11.77;9.77;;;6.80;99.90;;;;;;5055867;28;20333;-52
2022/11/13 03:14:23;;;;;;;13.10;10.70;;;6.80;99.90;;;;;;5056097;28;20312;-54
2022/11/13 03:17:11;;;;;;;12.10;10.80;;;6.80;99.90;;;;;;5038944;28;20351;-53
2022/11/13 03:19:58;;;;;;;15.23;10.87;;;6.80;99.90;;;;;;5055948;28;20242;-51
2022/11/13 03:22:45;;;;;;;12.30;10.53;;;6.80;99.90;;;;;;5054031;28;20726;-52
2022/11/13 03:25:31;;;;;;;14.13;11.57;;;6.80;99.90;;;;;;5054186;28;20756;-52
2022/11/13 03:28:17;;;;;;;11.87;10.23;;;6.80;99.90;;;;;;5054341;28;20250;-52
2022/11/13 03:31:04;;;;;;;13.73;10.87;;;7.00;99.90;;;;;;5054098;28;20250;-49
2022/11/13 03:33:54;;;;;;;14.83;12.57;;;6.90;99.90;;;;;;5054205;28;20274;-53
2022/11/13 03:36:41;;;;;;;14.40;11.83;;;6.80;99.90;;;;;;5053726;28;20274;-53
2022/11/13 03:39:27;;;;;;;14.83;11.43;;;6.80;99.90;;;;;;5053548;28;20254;-51
2022/11/13 03:42:13;;;;;;;13.97;11.40;;;6.80;99.90;;;;;;5055167;28;20318;-52
2022/11/13 03:45:00;;;;;;;14.97;11.97;;;6.70;99.90;;;;;;5059567;28;20237;-52
2022/11/13 03:47:48;;;;;;;14.67;11.20;;;6.70;99.90;;;;;;5054609;28;20239;-49
2022/11/13 03:50:35;;;;;;;12.27;9.60;;;6.70;99.90;;;;;;5053575;28;20305;-52
2022/11/13 03:53:28;;;;;;;11.03;9.77;;;6.60;99.90;;;;;;5053598;28;20320;-53
2022/11/13 03:56:14;;;;;;;12.30;10.17;;;6.60;99.90;;;;;;5053790;28;20223;-52
2022/11/13 03:59:01;;;;;;;12.57;10.00;;;6.60;99.90;;;;;;5053676;28;20234;-52
2022/11/13 04:01:47;;;;;;;14.27;10.50;;;6.60;99.90;;;;;;5052838;28;20247;-53
2022/11/13 04:04:34;;;;;;;12.07;10.30;;;6.50;99.90;;;;;;5053263;28;20242;-54
2022/11/13 04:07:22;;;;;;;12.47;10.13;;;6.50;99.90;;;;;;5053254;28;20235;-54
2022/11/13 04:10:09;;;;;;;13.40;11.07;;;6.50;99.90;;;;;;5053617;28;20358;-52
2022/11/13 04:12:55;;;;;;;13.43;10.47;;;6.50;99.90;;;;;;5054299;28;20284;-53
2022/11/13 04:15:41;;;;;;;13.47;10.97;;;6.50;99.90;;;;;;5055763;28;20219;-54
2022/11/13 04:18:28;;;;;;;14.07;12.00;;;6.50;99.90;;;;;;5060110;28;20301;-52
2022/11/13 04:21:15;;;;;;;15.27;12.30;;;6.50;99.90;;;;;;5046039;28;20270;-54
2022/11/13 04:24:04;;;;;;;15.17;12.20;;;6.50;99.90;;;;;;5053332;28;20630;-52
2022/11/13 04:26:50;;;;;;;13.90;11.43;;;6.50;99.90;;;;;;5053076;28;20246;-53
2022/11/13 04:29:36;;;;;;;15.87;12.20;;;6.50;99.90;;;;;;5052984;28;20239;-52
2022/11/13 04:32:23;;;;;;;17.27;12.63;;;6.50;99.90;;;;;;5052741;28;20338;-53
2022/11/13 04:35:10;;;;;;;16.17;11.67;;;6.50;99.90;;;;;;5053149;28;20297;-52
2022/11/13 04:37:56;;;;;;;16.40;12.70;;;6.50;99.90;;;;;;5052739;28;20250;-53
2022/11/13 04:40:44;;;;;;;15.27;13.00;;;6.50;99.90;;;;;;5053978;28;20277;-52
2022/11/13 04:43:30;;;;;;;14.87;12.57;;;6.50;99.90;;;;;;5051022;28;20226;-52
2022/11/13 04:46:16;;;;;;;14.80;12.87;;;6.50;99.90;;;;;;5051895;28;20239;-51
2022/11/13 04:49:03;;;;;;;15.17;12.70;;;6.40;99.90;;;;;;5061429;28;20606;-53
2022/11/13 04:51:49;;;;;;;13.33;11.80;;;6.50;99.90;;;;;;5068985;28;20273;-53
2022/11/13 04:54:35;;;;;;;17.07;13.87;;;6.50;99.90;;;;;;5072994;28;20222;-53
2022/11/13 04:57:23;;;;;;;15.27;12.83;;;6.50;99.90;;;;;;5073013;28;20290;-51
2022/11/13 05:00:11;;;;;;;18.67;14.60;;;6.60;99.90;;;;;;5072853;28;20226;-52
2022/11/13 05:02:57;;;;;;;16.97;14.00;;;6.50;99.90;;;;;;5072612;28;20326;-53
2022/11/13 05:05:44;;;;;;;18.00;12.90;;;6.50;99.90;;;;;;5072194;28;20226;-53
2022/11/13 05:08:30;;;;;;;17.93;14.40;;;6.50;99.90;;;;;;5072716;28;20245;-53
2022/11/13 05:11:17;;;;;;;17.37;14.07;;;6.60;99.90;;;;;;5061423;28;20230;-51
2022/11/13 05:14:06;;;;;;;18.13;14.40;;;6.50;99.90;;;;;;5055838;28;20238;-51
2022/11/13 05:16:53;;;;;;;16.90;13.87;;;6.40;99.90;;;;;;5054637;28;20219;-49
2022/11/13 05:19:39;;;;;;;18.40;13.50;;;6.40;99.90;;;;;;5052472;28;20273;-52
2022/11/13 05:22:26;;;;;;;16.70;13.93;;;6.40;99.90;;;;;;5052836;28;20227;-55
2022/11/13 05:25:12;;;;;;;19.33;13.83;;;6.40;99.90;;;;;;5055610;28;20239;-51
2022/11/13 05:27:59;;;;;;;19.10;14.67;;;6.40;99.90;;;;;;5056319;28;20238;-48
2022/11/13 05:30:46;;;;;;;16.80;13.83;;;6.40;99.90;;;;;;5056054;28;21381;-53
2022/11/13 05:33:33;;;;;;;17.50;14.30;;;6.30;99.90;;;;;;5056048;28;20243;-51
2022/11/13 05:36:21;;;;;;;17.63;15.07;;;6.40;99.90;;;;;;5056375;28;20540;-53
2022/11/13 05:39:07;;;;;;;18.83;14.83;;;6.30;99.90;;;;;;5056325;28;20460;-54
2022/11/13 05:41:54;;;;;;;17.67;13.10;;;6.30;99.90;;;;;;5056064;28;20453;-51
2022/11/13 05:44:40;;;;;;;18.40;14.13;;;6.30;99.90;;;;;;5055647;28;20473;-54
2022/11/13 05:47:28;;;;;;;17.83;14.07;;;6.30;99.90;;;;;;5053935;28;20477;-52
2022/11/13 05:50:15;;;;;;;18.57;14.27;;;6.30;99.90;;;;;;5057340;28;20231;-52
2022/11/13 05:53:02;;;;;;;15.07;12.80;;;6.20;99.90;;;;;;5051040;28;20289;-51
2022/11/13 05:55:48;;;;;;;17.53;13.77;;;6.30;99.90;;;;;;5055975;28;20281;-51
2022/11/13 05:58:35;;;;;;;17.20;14.13;;;6.20;99.90;;;;;;5056001;28;20219;-54
2022/11/13 06:01:24;;;;;;;20.43;13.93;;;6.10;99.90;;;;;;5055665;28;20711;-53
2022/11/13 06:04:12;;;;;;;16.63;13.53;;;6.10;99.90;;;;;;5055660;28;20314;-50
2022/11/13 06:06:59;;;;;;;16.50;13.03;;;6.10;99.90;;;;;;5056066;28;20235;-52
2022/11/13 06:09:45;;;;;;;15.10;12.57;;;6.10;99.90;;;;;;5055572;28;20338;-53
2022/11/13 06:12:32;;;;;;;13.60;11.83;;;6.10;99.90;;;;;;5055645;28;20306;-53
2022/11/13 06:15:18;;;;;;;13.53;12.00;;;6.00;99.90;;;;;;5055514;28;20261;-53
2022/11/13 06:18:05;;;;;;;14.80;12.20;;;6.00;99.90;;;;;;5054888;28;20570;-52
2022/11/13 06:20:53;;;;;;;14.97;12.63;;;6.00;99.90;;;;;;5063977;28;20456;-52
2022/11/13 06:23:41;;;;;;;14.63;12.03;;;6.00;99.90;;;;;;5074800;28;20309;-50
2022/11/13 06:26:30;;;;;;;14.50;12.70;;;6.00;99.90;;;;;;5074965;28;20488;-52
2022/11/13 06:29:16;;;;;;;15.03;12.67;;;6.00;99.90;;;;;;5075588;28;20448;-52
2022/11/13 06:32:03;;;;;;;15.03;12.73;;;5.90;99.90;;;;;;5074954;28;20365;-48
2022/11/13 06:34:49;;;;;;;15.40;13.17;;;5.90;99.90;;;;;;5075226;28;20237;-50
2022/11/13 06:37:37;;;;;;;15.37;13.20;;;6.00;99.90;;;;;;5075062;28;20233;-54
2022/11/13 06:40:24;;;;;;;14.70;12.60;;;5.90;99.90;;;;;;5074955;28;20229;-51
2022/11/13 06:43:11;;;;;;;13.97;12.40;;;5.90;99.90;;;;;;5068401;28;20836;-53
2022/11/13 06:45:58;;;;;;;13.73;12.23;;;5.90;99.90;;;;;;5056950;28;20237;-51
2022/11/13 06:48:45;;;;;;;15.63;13.03;;;5.90;99.90;;;;;;5054440;28;20230;-52
2022/11/13 06:51:32;;;;;;;16.83;13.50;;;5.90;99.90;;;;;;5068747;28;20319;-53
2022/11/13 06:54:19;;;;;;;14.00;12.00;;;5.90;99.90;;;;;;5074936;28;20451;-53
2022/11/13 06:57:06;;;;;;;13.67;12.13;;;5.80;99.90;;;;;;5073413;28;20235;-52
2022/11/13 06:59:52;;;;;;;11.63;10.43;;;5.80;99.90;;;;;;5071366;28;20241;-54
2022/11/13 07:02:39;;;;;;;12.17;10.87;;;5.80;99.90;;;;;;5050213;28;20471;-50
2022/11/13 07:05:26;;;;;;;13.10;10.50;;;5.80;99.90;;;;;;5054765;28;20233;-53
2022/11/13 07:08:13;;;;;;;11.20;9.50;;;5.80;99.90;;;;;;5057168;28;21024;-52
2022/11/13 07:11:01;;;;;;;11.87;10.57;;;5.70;99.90;;;;;;5061921;28;20452;-51
2022/11/13 07:13:48;;;;;;;11.00;9.10;;;5.80;99.90;;;;;;5060032;28;20464;-51
2022/11/13 07:16:35;;;;;;;12.53;10.90;;;5.80;99.90;;;;;;5053967;28;20234;-53
2022/11/13 07:19:41;;;;;;;14.80;11.93;;;5.80;99.90;;;;;;5050043;28;20229;-52
2022/11/13 07:22:29;;;;;;;15.00;12.90;;;5.80;99.90;;;;;;5034115;28;20298;-52
2022/11/13 07:25:15;;;;;;;18.30;13.10;;;5.90;99.90;;;;;;5055024;28;20466;-53
2022/11/13 07:28:04;;;;;;;15.47;12.97;;;5.90;99.90;;;;;;5067426;28;20498;-52
2022/11/13 07:30:51;;;;;;;17.90;14.30;;;6.00;99.90;;;;;;5073747;28;20481;-53
2022/11/13 07:33:37;;;;;;;15.17;13.07;;;6.00;99.90;;;;;;5067957;28;20998;-51
2022/11/13 07:36:24;;;;;;;17.57;14.37;;;6.00;99.90;;;;;;5056992;28;20230;-54
2022/11/13 07:39:10;;;;;;;16.93;14.90;;;6.10;99.90;;;;;;5053900;28;20229;-51
2022/11/13 07:41:57;;;;;;;17.77;14.50;;;6.10;99.90;;;;;;5063205;28;20467;-51
2022/11/13 07:44:44;;;;;;;19.30;15.97;;;6.10;99.90;;;;;;5046523;28;20824;-52
2022/11/13 07:47:41;;;;;;;20.53;15.93;;;6.10;99.90;;;;;;5050827;28;20299;-54
2022/11/13 07:50:28;;;;;;;20.03;15.47;;;6.20;99.90;;;;;;5047638;28;20462;-52
2022/11/13 07:53:15;;;;;;;18.17;15.63;;;6.30;99.90;;;;;;5047817;28;20227;-51
2022/11/13 07:56:03;;;;;;;16.77;14.90;;;6.30;99.90;;;;;;5047918;28;20576;-53
2022/11/13 07:58:50;;;;;;;19.50;15.63;;;6.30;99.90;;;;;;5048220;28;20544;-53
2022/11/13 08:01:38;;;;;;;17.70;15.13;;;6.40;99.90;;;;;;5046296;28;20473;-51
2022/11/13 08:04:25;;;;;;;17.73;15.10;;;6.50;99.90;;;;;;5047541;28;20482;-53
2022/11/13 08:07:12;;;;;;;16.67;14.57;;;6.50;99.90;;;;;;5048452;28;20479;-56
2022/11/13 08:09:59;;;;;;;18.17;14.67;;;6.40;99.90;;;;;;5048480;28;20584;-52
2022/11/13 08:12:46;;;;;;;17.80;15.20;;;6.50;99.90;;;;;;5048531;28;20999;-52
2022/11/13 08:15:34;;;;;;;17.77;14.60;;;6.70;99.90;;;;;;5047729;28;20679;-53
2022/11/13 08:18:22;;;;;;;16.67;14.03;;;6.70;99.90;;;;;;5048028;28;20238;-53
2022/11/13 08:21:08;;;;;;;16.60;14.23;;;6.80;99.90;;;;;;5048048;28;20349;-52
2022/11/13 08:24:00;;;;;;;16.67;14.50;;;7.00;99.90;;;;;;5047761;28;20235;-54
2022/11/13 08:26:47;;;;;;;16.20;14.27;;;7.20;99.90;;;;;;5046854;28;20358;-52
2022/11/13 08:29:36;;;;;;;16.03;13.90;;;7.30;99.90;;;;;;5047469;28;20454;-51
2022/11/13 08:32:22;;;;;;;16.33;13.40;;;7.50;99.90;;;;;;5046692;28;20234;-53
2022/11/13 08:35:11;;;;;;;15.40;13.80;;;7.70;99.90;;;;;;5048480;28;20261;-56
2022/11/13 08:38:06;;;;;;;16.57;13.17;;;7.80;99.90;;;;;;5048889;28;20223;-53
2022/11/13 08:40:56;;;;;;;15.80;13.40;;;8.00;99.90;;;;;;5048128;28;20286;-53
2022/11/13 08:43:42;;;;;;;15.93;14.17;;;8.10;99.90;;;;;;5048496;28;20265;-54
2022/11/13 08:46:29;;;;;;;15.53;13.73;;;8.30;99.90;;;;;;5046373;28;20698;-54
2022/11/13 08:49:15;;;;;;;14.43;12.77;;;8.60;99.90;;;;;;5046290;28;20243;-51
2022/11/13 08:52:04;;;;;;;14.63;12.73;;;8.70;99.90;;;;;;5048053;28;20321;-53
2022/11/13 08:54:50;;;;;;;15.53;13.93;;;9.00;99.90;;;;;;5047839;28;20833;-54
2022/11/13 08:57:39;;;;;;;17.07;13.60;;;9.10;99.90;;;;;;5047237;28;20780;-54
2022/11/13 09:00:25;;;;;;;13.80;12.40;;;9.30;99.90;;;;;;5049380;28;20226;-53
2022/11/13 09:03:12;;;;;;;14.77;12.97;;;9.30;99.90;;;;;;5050300;28;20238;-55
2022/11/13 09:05:59;;;;;;;15.53;13.07;;;9.40;99.90;;;;;;5051503;28;20230;-54
2022/11/13 09:08:47;;;;;;;15.47;13.83;;;9.30;99.90;;;;;;5050457;28;20734;-57
2022/11/13 09:11:34;;;;;;;15.33;13.07;;;9.40;99.90;;;;;;5051353;28;20230;-53
2022/11/13 09:14:20;;;;;;;14.27;12.73;;;9.60;99.90;;;;;;5053074;28;21266;-53
2022/11/13 09:17:07;;;;;;;15.83;12.73;;;9.50;99.90;;;;;;5052269;28;20226;-54
2022/11/13 09:19:53;;;;;;;14.37;12.70;;;9.40;99.90;;;;;;5051094;28;20301;-57
2022/11/13 09:22:40;;;;;;;15.33;13.70;;;9.40;99.90;;;;;;5051281;28;20370;-55
2022/11/13 09:25:29;;;;;;;15.10;13.47;;;9.30;99.90;;;;;;5049849;28;20277;-57
2022/11/13 09:28:23;;;;;;;15.60;13.90;;;9.50;99.90;;;;;;5050953;28;20218;-54
2022/11/13 09:31:10;;;;;;;16.13;14.27;;;9.60;99.90;;;;;;5050500;28;20234;-57
2022/11/13 09:33:56;;;;;;;14.90;13.23;;;9.80;99.90;;;;;;5050932;28;20342;-54
2022/11/13 09:36:43;;;;;;;14.97;12.77;;;9.90;99.90;;;;;;5050446;28;20239;-55
2022/11/13 09:39:29;;;;;;;15.40;13.80;;;9.90;99.90;;;;;;5050452;28;20318;-55
2022/11/13 09:42:20;;;;;;;14.90;13.30;;;10.30;99.90;;;;;;5050837;28;20223;-57
2022/11/13 09:45:12;;;;;;;16.00;14.17;;;10.60;99.90;;;;;;5051736;28;20583;-54
2022/11/13 09:48:07;;;;;;;15.07;13.57;;;10.70;99.90;;;;;;5051041;28;20239;-55
2022/11/13 09:50:55;;;;;;;15.87;13.73;;;10.80;99.90;;;;;;5050164;28;20224;-57
2022/11/13 09:53:42;;;;;;;16.90;14.17;;;10.80;99.90;;;;;;5049082;28;20704;-57
2022/11/13 09:56:33;;;;;;;16.53;14.80;;;10.70;99.90;;;;;;5053607;28;20227;-55
2022/11/13 09:59:28;;;;;;;16.27;14.23;;;10.80;99.90;;;;;;5065800;28;20230;-55
2022/11/13 10:02:30;;;;;;;16.83;14.43;;;10.80;99.90;;;;;;5062681;28;20238;-54
2022/11/13 10:05:25;;;;;;;17.03;14.30;;;10.90;99.90;;;;;;5066449;28;20590;-55
2022/11/13 10:08:16;;;;;;;16.20;14.50;;;10.80;99.90;;;;;;5066984;28;20602;-54
2022/11/13 10:11:15;;;;;;;16.10;14.40;;;11.00;99.90;;;;;;5061755;28;20235;-55
2022/11/13 10:14:08;;;;;;;17.67;14.40;;;11.30;99.90;;;;;;5061650;28;20788;-53
2022/11/13 10:16:59;;;;;;;17.93;15.13;;;11.30;99.90;;;;;;5055004;28;20711;-55
2022/11/13 10:19:55;;;;;;;17.53;13.93;;;11.50;99.90;;;;;;5055335;28;20235;-55
2022/11/13 10:22:48;;;;;;;16.93;14.23;;;11.50;99.90;;;;;;5049989;28;20250;-54
2022/11/13 10:25:38;;;;;;;16.07;13.87;;;11.70;99.90;;;;;;5046773;28;20294;-55
2022/11/13 10:28:27;;;;;;;16.70;13.20;;;11.80;99.90;;;;;;5073717;28;20294;-56
2022/11/13 10:31:42;;;;;;;15.23;13.03;;;11.90;99.90;;;;;;5074760;28;20766;-53
2022/11/13 10:34:32;;;;;;;15.33;13.40;;;11.90;99.90;;;;;;5074928;28;20235;-55
2022/11/13 10:37:28;;;;;;;15.40;12.80;;;11.90;99.90;;;;;;5074818;28;20794;-55
2022/11/13 10:40:24;;;;;;;14.87;13.27;;;11.70;99.90;;;;;;5075355;28;20727;-56
2022/11/13 10:43:15;;;;;;;15.23;12.93;;;11.90;99.90;;;;;;5068884;28;20231;-56
2022/11/13 10:46:03;;;;;;;17.10;13.20;;;11.80;99.90;;;;;;5055455;28;20238;-53
2022/11/13 10:48:50;;;;;;;15.27;12.50;;;12.00;99.90;;;;;;5054647;28;20619;-55
2022/11/13 10:51:39;;;;;;;15.13;12.50;;;12.00;99.90;;;;;;5054731;28;20315;-55
2022/11/13 10:54:29;;;;;;;15.07;12.43;;;11.80;99.90;;;;;;5054696;28;20703;-56
2022/11/13 10:57:25;;;;;;;14.17;11.10;;;11.80;99.90;;;;;;5071851;28;20303;-55
2022/11/13 11:00:23;;;;;;;15.93;12.93;;;11.60;99.90;;;;;;5046194;28;20231;-56
2022/11/13 11:03:15;;;;;;;14.57;12.53;;;11.80;99.90;;;;;;5059292;28;20342;-55
2022/11/13 11:06:04;;;;;;;16.30;12.93;;;11.90;99.90;;;;;;5070924;28;20233;-54
2022/11/13 11:08:52;;;;;;;16.83;12.97;;;11.90;99.90;;;;;;5074592;28;20238;-55
2022/11/13 11:14:59;;;;;;;15.43;12.87;;;11.90;99.90;;;;;;5056634;28;20240;-55
2022/11/13 11:17:49;;;;;;;16.70;13.67;;;11.70;99.90;;;;;;5062421;28;20712;-55
2022/11/13 11:20:47;;;;;;;15.80;13.30;;;11.50;99.90;;;;;;5049577;28;20232;-55
2022/11/13 11:23:40;;;;;;;18.07;13.60;;;11.30;99.90;;;;;;5067411;28;20698;-55
2022/11/13 11:26:33;;;;;;;16.50;13.13;;;11.50;99.90;;;;;;5047030;28;20234;-55
2022/11/13 11:29:26;;;;;;;17.50;13.90;;;11.60;99.90;;;;;;5054057;28;20232;-54
2022/11/13 11:32:19;;;;;;;17.03;13.27;;;11.70;99.90;;;;;;5053518;28;20256;-54
2022/11/13 11:35:13;;;;;;;18.30;14.47;;;11.80;99.90;;;;;;5054197;28;20243;-55
2022/11/13 11:38:07;;;;;;;17.17;13.70;;;11.60;99.90;;;;;;5043728;28;20302;-54
2022/11/13 11:41:01;;;;;;;18.33;15.10;;;11.40;99.90;;;;;;5054059;28;20235;-55
2022/11/13 11:44:00;;;;;;;20.23;15.10;;;11.30;99.90;;;;;;5057563;28;20235;-55
2022/11/13 11:46:47;;;;;;;17.23;13.87;;;11.40;99.90;;;;;;5056454;28;20306;-52
2022/11/13 11:49:33;;;;;;;19.80;15.77;;;11.50;99.90;;;;;;5062431;28;20326;-54
2022/11/13 11:52:32;;;;;;;21.07;15.43;;;11.50;99.90;;;;;;5051508;28;20244;-54
2022/11/13 11:55:34;;;;;;;20.23;15.60;;;11.60;99.90;;;;;;5061944;28;20222;-53
2022/11/13 11:58:35;;;;;;;20.57;15.97;;;11.50;99.90;;;;;;5060657;28;20234;-55
2022/11/13 12:01:35;;;;;;;21.10;16.50;;;11.40;99.90;;;;;;5033363;28;20310;-55
2022/11/13 12:04:46;;;;;;;20.03;15.73;;;11.30;99.90;;;;;;5056137;28;20255;-55
2022/11/13 12:07:41;;;;;;;23.37;17.30;;;11.10;99.90;;;;;;5072470;28;20715;-55
2022/11/13 12:10:35;;;;;;;24.10;17.83;;;10.80;99.90;;;;;;5073162;28;20353;-56
2022/11/13 12:13:28;;;;;;;23.90;17.60;;;10.70;99.90;;;;;;5067763;28;20277;-55
2022/11/13 12:16:21;;;;;;;24.53;18.80;;;10.50;99.90;;;;;;5043614;28;20240;-55
2022/11/13 12:19:22;;;;;;;24.33;18.20;;;10.40;99.90;;;;;;5052543;28;20581;-55
2022/11/13 12:22:16;;;;;;;22.40;17.80;;;10.40;99.90;;;;;;5054509;28;20232;-54
2022/11/13 12:25:15;;;;;;;23.37;18.17;;;10.50;99.90;;;;;;5059664;28;20374;-54
2022/11/13 12:28:10;;;;;;;24.03;18.87;;;10.50;99.90;;;;;;5059561;28;20238;-56
2022/11/13 12:31:07;;;;;;;24.17;19.03;;;10.50;99.90;;;;;;5052499;28;20317;-55
2022/11/13 12:34:05;;;;;;;23.87;18.40;;;10.40;99.90;;;;;;5052953;28;20239;-55
2022/11/13 12:36:54;;;;;;;22.67;17.03;;;10.30;99.90;;;;;;5052960;28;20239;-55
2022/11/13 12:39:49;;;;;;;22.83;18.47;;;10.10;99.90;;;;;;5052578;28;20229;-55
2022/11/13 12:42:41;;;;;;;23.20;17.43;;;10.10;99.90;;;;;;5054918;28;20280;-55
2022/11/13 12:45:50;;;;;;;22.10;18.13;;;10.10;99.90;;;;;;5047072;28;20311;-55
2022/11/13 12:48:40;;;;;;;21.93;17.60;;;10.10;99.90;;;;;;5069416;28;20374;-55
2022/11/13 12:51:39;;;;;;;21.97;18.20;;;10.10;99.90;;;;;;5054703;28;20318;-55
2022/11/13 12:54:28;;;;;;;23.83;17.73;;;10.00;99.90;;;;;;5055548;28;20234;-57
2022/11/13 12:57:21;;;;;;;22.07;17.07;;;9.80;99.90;;;;;;5061388;28;20281;-54
2022/11/13 13:00:25;;;;;;;22.13;16.90;;;9.60;99.90;;;;;;5070673;28;20318;-53
2022/11/13 13:03:37;;;;;;;19.63;16.43;;;9.60;99.90;;;;;;5068498;28;20281;-54
2022/11/13 13:06:40;;;;;;;21.97;18.73;;;9.50;99.90;;;;;;5060600;28;20236;-55
2022/11/13 13:09:43;;;;;;;20.07;15.90;;;9.50;99.90;;;;;;5064000;28;20237;-54
2022/11/13 13:12:41;;;;;;;21.33;15.77;;;9.40;99.90;;;;;;5043745;28;20793;-55
2022/11/13 13:15:32;;;;;;;25.77;17.57;;;9.40;99.90;;;;;;5046701;28;20273;-56
2022/11/13 13:18:27;;;;;;;24.60;18.03;;;9.30;99.90;;;;;;5048151;28;20226;-55
2022/11/13 13:21:16;;;;;;;28.17;18.60;;;9.10;99.90;;;;;;5047553;28;20319;-53
2022/11/13 13:24:08;;;;;;;24.90;19.27;;;9.20;99.90;;;;;;5047844;28;20238;-55
2022/11/13 13:26:57;;;;;;;27.53;20.10;;;9.10;99.90;;;;;;5047732;28;20270;-54
2022/11/13 13:29:43;;;;;;;26.53;19.00;;;9.10;99.90;;;;;;5046548;28;20254;-53
2022/11/13 13:32:38;;;;;;;30.10;21.97;;;8.90;99.90;;;;;;5046142;28;20231;-56
2022/11/13 13:35:30;;;;;;;30.13;22.17;;;9.00;99.90;;;;;;5046977;28;20591;-55
2022/11/13 13:38:23;;;;;;;30.20;23.23;;;9.10;99.90;;;;;;5047008;28;20246;-55
2022/11/13 13:41:18;;;;;;;29.53;22.30;;;9.10;99.90;;;;;;5048236;28;20227;-54
2022/11/13 13:44:35;;;;;;;28.57;21.07;;;9.20;99.90;;;;;;5046938;28;20862;-55
2022/11/13 13:47:26;;;;;;;26.83;21.03;;;9.10;99.90;;;;;;5051212;28;20302;-54
2022/11/13 13:50:17;;;;;;;26.03;20.30;;;9.10;99.90;;;;;;5051803;28;20714;-57
2022/11/13 13:53:04;;;;;;;26.30;20.67;;;9.20;99.90;;;;;;5051799;28;20258;-54
2022/11/13 13:55:54;;;;;;;25.67;20.30;;;9.10;99.90;;;;;;5050483;28;20719;-56
2022/11/13 13:58:41;;;;;;;26.27;19.70;;;9.10;99.90;;;;;;5050093;28;20230;-55
2022/11/13 14:01:31;;;;;;;27.90;20.30;;;9.10;99.90;;;;;;5050226;28;20273;-54
2022/11/13 14:04:20;;;;;;;27.10;20.73;;;9.00;99.90;;;;;;5051073;28;20238;-55
2022/11/13 14:07:20;;;;;;;26.53;20.73;;;9.00;99.90;;;;;;5050804;28;20242;-54
2022/11/13 14:10:14;;;;;;;30.47;23.03;;;9.00;99.90;;;;;;5048991;28;20234;-52
2022/11/13 14:13:00;;;;;;;29.30;22.87;;;8.90;99.90;;;;;;5049304;28;20239;-56
2022/11/13 14:15:47;;;;;;;29.13;22.13;;;8.90;99.90;;;;;;5050837;28;20599;-54
2022/11/13 14:18:35;;;;;;;27.70;21.17;;;8.90;99.90;;;;;;5050247;28;20234;-54
2022/11/13 14:21:23;;;;;;;27.90;21.20;;;8.90;99.90;;;;;;5050317;28;20231;-54
2022/11/13 14:24:16;;;;;;;26.10;20.87;;;8.90;99.90;;;;;;5051351;28;20254;-55
2022/11/13 14:27:07;;;;;;;23.17;17.87;;;8.80;99.90;;;;;;5050163;28;20238;-54
2022/11/13 14:29:56;;;;;;;25.73;19.57;;;8.70;99.90;;;;;;5049779;28;20614;-52
2022/11/13 14:32:43;;;;;;;25.83;18.50;;;8.70;99.90;;;;;;5049236;28;20227;-56
2022/11/13 14:35:35;;;;;;;24.27;19.27;;;8.70;99.90;;;;;;5050033;28;20805;-55